Time;durP1;ratioP1;P1;durP2;ratioP2;P2;SDS_P1;SDS_P2;PMS_P1;PMS_P2;Temp;Humidity;BMP_temperature;BMP_pressure;BME280_temperature;BME280_humidity;BME280_pressure;Samples;Min_cycle;Max_cycle;Signal;HPM_P1;HPM_P2
2024/03/14 00:01:36;;;;;;;19.92;11.00;;;;;;;6.69;100.00;99688.00;5126745;28;20015;-61
2024/03/14 00:04:03;;;;;;;29.20;7.78;;;;;;;6.73;100.00;99691.44;5127274;28;20015;-61
2024/03/14 00:06:29;;;;;;;20.05;10.60;;;;;;;6.69;100.00;99693.16;5127034;28;20098;-62
2024/03/14 00:08:55;;;;;;;21.77;12.07;;;;;;;6.67;100.00;99697.50;5126761;28;20026;-63
2024/03/14 00:11:21;;;;;;;11.48;9.70;;;;;;;6.66;100.00;99687.19;5126652;28;20141;-62
2024/03/14 00:13:46;;;;;;;20.88;10.10;;;;;;;6.64;100.00;99688.91;5126622;28;20036;-62
2024/03/14 00:16:13;;;;;;;27.05;7.22;;;;;;;6.67;100.00;99674.28;5108286;28;20155;-61
2024/03/14 00:18:39;;;;;;;20.85;12.05;;;;;;;6.76;100.00;99690.56;5126670;28;20126;-61
2024/03/14 00:21:09;;;;;;;16.73;8.70;;;;;;;6.69;100.00;99688.00;5125740;28;20092;-61
2024/03/14 00:23:36;;;;;;;9.07;6.88;;;;;;;6.73;100.00;99682.81;5126630;28;20027;-61
2024/03/14 00:26:01;;;;;;;12.27;6.05;;;;;;;6.80;100.00;99669.91;5126727;28;20490;-61
2024/03/14 00:28:26;;;;;;;12.32;7.70;;;;;;;6.78;100.00;99671.66;5126292;28;20019;-62
2024/03/14 00:30:52;;;;;;;14.50;6.38;;;;;;;6.80;100.00;99663.91;5107853;28;20087;-61
2024/03/14 00:33:17;;;;;;;12.27;7.07;;;;;;;6.83;100.00;99666.47;5126557;28;20356;-63
2024/03/14 00:35:42;;;;;;;12.90;7.95;;;;;;;6.87;100.00;99667.31;5126384;28;20031;-62
2024/03/14 00:38:08;;;;;;;17.85;8.77;;;;;;;6.89;100.00;99658.69;5126142;28;20156;-62
2024/03/14 00:40:35;;;;;;;20.23;9.02;;;;;;;6.96;100.00;99669.84;5126495;28;20038;-61
2024/03/14 00:43:01;;;;;;;17.17;9.32;;;;;;;6.92;100.00;99663.81;5125924;28;20027;-62
2024/03/14 00:45:27;;;;;;;18.40;7.68;;;;;;;6.97;100.00;99652.59;5126593;28;20427;-63
2024/03/14 00:47:53;;;;;;;27.55;9.68;;;;;;;7.01;100.00;99644.00;5126119;28;20023;-61
2024/03/14 00:50:19;;;;;;;4.30;3.90;;;;;;;7.04;100.00;99649.16;5126279;28;20031;-63
2024/03/14 00:52:45;;;;;;;19.05;10.48;;;;;;;7.09;100.00;99639.66;5126375;28;20027;-62
2024/03/14 00:55:10;;;;;;;19.85;10.43;;;;;;;7.05;100.00;99635.34;5125978;28;20028;-62
2024/03/14 00:57:38;;;;;;;10.05;7.43;;;;;;;7.15;100.00;99644.78;5107421;28;20049;-62
2024/03/14 01:00:11;;;;;;;9.30;5.50;;;;;;;7.25;100.00;99630.06;5126132;28;20047;-62
2024/03/14 01:02:37;;;;;;;18.02;9.18;;;;;;;7.23;100.00;99636.09;5125916;28;20019;-62
2024/03/14 01:05:02;;;;;;;14.77;9.10;;;;;;;7.24;100.00;99620.59;5125824;28;20029;-62
2024/03/14 01:07:28;;;;;;;11.50;7.32;;;;;;;7.26;100.00;99626.63;5125901;28;20047;-63
2024/03/14 01:09:53;;;;;;;23.42;11.18;;;;;;;7.24;100.00;99627.47;5125636;28;20093;-62
2024/03/14 01:12:18;;;;;;;15.77;8.25;;;;;;;7.32;100.00;99611.09;5125521;28;20046;-62
2024/03/14 01:14:46;;;;;;;26.92;11.32;;;;;;;7.25;100.00;99604.25;5125781;28;20470;-62
2024/03/14 01:17:11;;;;;;;16.75;8.55;;;;;;;7.36;100.00;99599.00;5125481;28;20032;-62
2024/03/14 01:19:37;;;;;;;22.10;10.32;;;;;;;7.32;100.00;99605.06;5125807;28;20096;-61
2024/03/14 01:22:03;;;;;;;19.25;6.55;;;;;;;7.28;100.00;99601.66;5125467;28;20115;-61
2024/03/14 01:24:29;;;;;;;21.55;9.82;;;;;;;7.35;100.00;99599.03;5125583;28;20019;-61
2024/03/14 01:26:57;;;;;;;12.10;7.18;;;;;;;7.35;100.00;99597.28;5125459;28;20023;-64
2024/03/14 01:29:25;;;;;;;7.75;4.35;;;;;;;7.25;100.00;99593.91;5125196;28;20015;-62
2024/03/14 01:31:51;;;;;;;6.60;4.70;;;;;;;7.22;100.00;99598.25;5125206;28;20019;-62
2024/03/14 01:34:16;;;;;;;11.10;6.90;;;;;;;7.23;100.00;99594.81;5125711;28;20062;-61
2024/03/14 01:36:41;;;;;;;18.75;7.32;;;;;;;7.24;100.00;99592.22;5125378;28;20034;-62
2024/03/14 01:39:10;;;;;;;21.00;8.75;;;;;;;7.27;100.00;99587.03;5125294;28;20031;-62
2024/03/14 01:41:36;;;;;;;9.43;4.20;;;;;;;7.25;100.00;99593.06;5125278;28;20027;-62
2024/03/14 01:44:02;;;;;;;12.10;7.95;;;;;;;7.30;100.00;99586.16;5125043;28;20034;-62
2024/03/14 01:46:31;;;;;;;12.48;7.30;;;;;;;7.39;100.00;99578.31;5125298;28;20041;-62
2024/03/14 01:48:58;;;;;;;13.38;6.82;;;;;;;7.34;100.00;99574.91;5106661;28;20083;-62
2024/03/14 01:51:25;;;;;;;15.57;9.23;;;;;;;7.28;100.00;99565.50;5106725;28;20020;-61
2024/03/14 01:53:52;;;;;;;13.32;8.07;;;;;;;7.29;100.00;99568.94;5125178;28;20498;-61
2024/03/14 01:56:18;;;;;;;8.90;6.05;;;;;;;7.38;100.00;99576.59;5124934;28;20033;-61
2024/03/14 01:58:44;;;;;;;8.65;3.63;;;;;;;7.33;100.00;99575.81;5124690;28;20024;-62
2024/03/14 02:01:13;;;;;;;14.27;5.97;;;;;;;7.36;100.00;99568.03;5106477;28;20020;-63
2024/03/14 02:03:40;;;;;;;7.03;5.18;;;;;;;7.32;100.00;99559.44;5106640;28;20030;-61
2024/03/14 02:06:15;;;;;;;20.13;6.55;;;;;;;7.36;100.00;99549.09;5125049;28;20016;-62
2024/03/14 02:08:40;;;;;;;13.55;7.15;;;;;;;7.38;100.00;99550.78;5125042;28;20049;-62
2024/03/14 02:11:05;;;;;;;12.60;6.60;;;;;;;7.41;100.00;99545.56;5124715;28;20040;-61
2024/03/14 02:13:31;;;;;;;13.45;5.75;;;;;;;7.41;100.00;99558.50;5124950;28;20102;-62
2024/03/14 02:15:56;;;;;;;7.40;4.30;;;;;;;7.44;100.00;99555.03;5106590;28;20045;-62
2024/03/14 02:18:21;;;;;;;14.77;6.78;;;;;;;7.50;100.00;99554.13;5106437;28;20023;-63
2024/03/14 02:20:47;;;;;;;4.03;3.00;;;;;;;7.38;100.00;99537.84;5124790;28;20015;-63
2024/03/14 02:23:12;;;;;;;8.77;4.78;;;;;;;7.44;100.00;99555.03;5124829;28;20019;-62
2024/03/14 02:25:37;;;;;;;21.58;6.85;;;;;;;7.43;100.00;99545.56;5124793;28;20028;-62
2024/03/14 02:28:03;;;;;;;17.35;4.78;;;;;;;7.41;100.00;99547.31;5124667;28;20030;-62
2024/03/14 02:30:29;;;;;;;6.85;3.95;;;;;;;7.43;100.00;99536.09;5106526;28;20024;-62
2024/03/14 02:32:55;;;;;;;11.13;5.57;;;;;;;7.49;100.00;99544.66;5124743;28;20019;-61
2024/03/14 02:35:20;;;;;;;7.93;5.00;;;;;;;7.46;100.00;99549.88;5125152;28;20030;-61
2024/03/14 02:37:46;;;;;;;16.75;8.23;;;;;;;7.47;100.00;99544.69;5124573;28;20028;-62
2024/03/14 02:40:11;;;;;;;12.20;5.72;;;;;;;7.47;100.00;99529.19;5124904;28;20016;-62
2024/03/14 02:42:37;;;;;;;24.80;7.18;;;;;;;7.42;100.00;99524.06;5125182;28;20294;-62
2024/03/14 02:45:06;;;;;;;11.85;5.47;;;;;;;7.37;100.00;99519.81;5128405;28;20049;-63
2024/03/14 02:47:31;;;;;;;21.42;9.55;;;;;;;7.39;100.00;99523.22;5128359;28;20019;-62
2024/03/14 02:49:57;;;;;;;12.55;5.10;;;;;;;7.39;100.00;99518.06;5128515;28;20030;-62
2024/03/14 02:52:22;;;;;;;7.07;4.18;;;;;;;7.31;100.00;99515.56;5128474;28;20120;-61
2024/03/14 02:54:48;;;;;;;7.28;4.50;;;;;;;7.31;100.00;99515.56;5128298;28;20028;-61
2024/03/14 02:57:13;;;;;;;4.95;4.50;;;;;;;7.30;100.00;99524.19;5128100;28;20030;-61
2024/03/14 02:59:39;;;;;;;13.18;5.93;;;;;;;7.25;100.00;99516.44;5128415;28;20539;-62
2024/03/14 03:02:10;;;;;;;5.88;3.25;;;;;;;7.27;100.00;99525.06;5110005;28;20019;-61
2024/03/14 03:04:36;;;;;;;32.67;9.70;;;;;;;7.24;100.00;99519.06;5128177;28;20039;-61
2024/03/14 03:07:05;;;;;;;18.60;5.32;;;;;;;7.24;100.00;99513.88;5128255;28;20046;-62
2024/03/14 03:09:30;;;;;;;5.13;3.38;;;;;;;7.21;100.00;99508.75;5127989;28;20039;-62
2024/03/14 03:11:57;;;;;;;9.43;3.50;;;;;;;7.23;100.00;99492.41;5127998;28;20047;-61
2024/03/14 03:14:23;;;;;;;13.18;5.07;;;;;;;7.14;100.00;99498.47;5127967;28;20023;-60
2024/03/14 03:16:49;;;;;;;11.18;3.55;;;;;;;7.17;100.00;99518.28;5128091;28;20030;-62
2024/03/14 03:19:14;;;;;;;9.80;3.70;;;;;;;7.12;100.00;99505.41;5127867;28;20020;-61
2024/03/14 03:21:40;;;;;;;13.23;6.07;;;;;;;7.09;100.00;99500.28;5109272;28;20123;-61
2024/03/14 03:24:08;;;;;;;8.07;4.43;;;;;;;7.06;100.00;99495.97;5127778;28;20016;-61
2024/03/14 03:26:34;;;;;;;4.68;2.95;;;;;;;7.06;100.00;99505.47;5127998;28;20098;-62
2024/03/14 03:29:01;;;;;;;5.10;3.10;;;;;;;7.02;100.00;99509.78;5127632;28;20050;-62
2024/03/14 03:31:26;;;;;;;1.98;1.77;;;;;;;7.00;100.00;99484.84;5127582;28;20087;-62
2024/03/14 03:33:53;;;;;;;1.00;0.95;;;;;;;6.98;100.00;99497.75;5127655;28;20026;-62
2024/03/14 03:36:22;;;;;;;17.77;7.90;;;;;;;7.02;100.00;99496.88;5109430;28;20135;-62
2024/03/14 03:38:48;;;;;;;6.60;4.55;;;;;;;7.02;100.00;99491.72;5127498;28;20231;-62
2024/03/14 03:41:13;;;;;;;5.05;3.97;;;;;;;7.04;100.00;99502.91;5126803;28;20099;-62
2024/03/14 03:43:39;;;;;;;16.15;7.15;;;;;;;7.08;100.00;99503.72;5127268;28;20020;-63
2024/03/14 03:46:06;;;;;;;15.63;2.83;;;;;;;7.02;100.00;99491.72;5127587;28;20030;-63
2024/03/14 03:48:33;;;;;;;2.38;2.20;;;;;;;6.99;100.00;99483.13;5127447;28;20019;-62
2024/03/14 03:50:59;;;;;;;1.63;1.45;;;;;;;6.93;100.00;99504.72;5127348;28;20028;-63
2024/03/14 03:53:24;;;;;;;3.58;2.97;;;;;;;6.94;100.00;99490.91;5108857;28;20028;-64
2024/03/14 03:55:50;;;;;;;5.60;2.42;;;;;;;6.92;100.00;99465.13;5126119;28;20027;-63
2024/03/14 03:58:16;;;;;;;9.10;4.47;;;;;;;6.98;100.00;99490.00;5126917;28;20024;-63
2024/03/14 04:00:43;;;;;;;1.90;1.77;;;;;;;6.93;100.00;99495.22;5108966;28;20106;-63
2024/03/14 04:03:11;;;;;;;7.88;5.05;;;;;;;6.90;100.00;99495.25;5127250;28;20031;-63
2024/03/14 04:05:39;;;;;;;2.25;2.05;;;;;;;6.88;100.00;99493.56;5127023;28;20023;-64
2024/03/14 04:08:05;;;;;;;6.20;3.55;;;;;;;6.74;100.00;99478.19;5126939;28;20518;-62
2024/03/14 04:10:36;;;;;;;5.90;4.13;;;;;;;6.82;100.00;99487.56;5126860;28;20055;-62
2024/03/14 04:13:04;;;;;;;3.30;2.95;;;;;;;6.82;100.00;99476.41;5126691;28;20026;-62
2024/03/14 04:15:30;;;;;;;6.18;2.80;;;;;;;6.82;100.00;99491.91;5108332;28;20049;-63
2024/03/14 04:17:56;;;;;;;2.45;2.30;;;;;;;6.79;100.00;99491.88;5108207;28;20016;-62
2024/03/14 04:20:28;;;;;;;9.07;4.30;;;;;;;6.77;100.00;99494.47;5108314;28;20053;-61
2024/03/14 04:22:56;;;;;;;4.60;2.53;;;;;;;6.75;100.00;99485.91;5126611;28;20459;-61
2024/03/14 04:25:22;;;;;;;5.40;4.57;;;;;;;6.74;100.00;99496.25;5126477;28;20027;-62
2024/03/14 04:27:51;;;;;;;14.27;4.15;;;;;;;6.68;100.00;99482.53;5126530;28;20052;-61
2024/03/14 04:30:17;;;;;;;13.40;4.10;;;;;;;6.68;100.00;99495.41;5126594;28;20024;-61
2024/03/14 04:32:47;;;;;;;7.80;3.85;;;;;;;6.65;100.00;99494.56;5126374;28;20083;-61
2024/03/14 04:35:16;;;;;;;6.78;4.32;;;;;;;6.62;100.00;99492.88;5126469;28;20031;-61
2024/03/14 04:37:42;;;;;;;8.85;3.20;;;;;;;6.59;100.00;99502.34;5126374;28;20035;-62
2024/03/14 04:40:12;;;;;;;6.97;3.28;;;;;;;6.55;100.00;99498.97;5126251;28;20028;-61
2024/03/14 04:42:41;;;;;;;3.38;2.13;;;;;;;6.54;100.00;99489.50;5126334;28;20102;-61
2024/03/14 04:45:22;;;;;;;4.97;4.50;;;;;;;6.58;100.00;99488.63;5107943;28;20016;-61
2024/03/14 04:47:48;;;;;;;2.08;1.90;;;;;;;6.60;100.00;99489.44;5107920;28;20034;-61
2024/03/14 04:50:14;;;;;;;5.75;2.67;;;;;;;6.54;100.00;99486.91;5126438;28;20023;-62
2024/03/14 04:52:40;;;;;;;0.90;0.85;;;;;;;6.56;100.00;99495.50;5126078;28;20384;-61
2024/03/14 04:55:08;;;;;;;4.05;3.53;;;;;;;6.51;100.00;99487.81;5126026;28;20019;-62
2024/03/14 04:57:40;;;;;;;5.63;4.82;;;;;;;6.54;100.00;99492.06;5125790;28;20024;-60
2024/03/14 05:02:44;;;;;;;6.75;1.73;;;;;;;6.44;100.00;99481.81;5125789;28;20024;-61
2024/03/14 05:05:09;;;;;;;10.30;3.58;;;;;;;6.50;100.00;99491.22;5107390;28;20087;-60
2024/03/14 05:07:38;;;;;;;6.30;2.20;;;;;;;6.51;100.00;99482.66;5125657;28;20020;-61
2024/03/14 05:10:05;;;;;;;3.78;2.08;;;;;;;6.53;100.00;99482.63;5125529;28;20044;-62
2024/03/14 05:12:31;;;;;;;5.57;3.58;;;;;;;6.56;100.00;99495.50;5125118;28;20019;-60
2024/03/14 05:14:56;;;;;;;9.45;3.00;;;;;;;6.53;100.00;99486.03;5125754;28;20016;-61
2024/03/14 05:17:21;;;;;;;4.60;2.97;;;;;;;6.53;100.00;99485.22;5125739;28;20107;-61
2024/03/14 05:19:47;;;;;;;2.17;1.85;;;;;;;6.50;100.00;99485.22;5125596;28;20016;-61
2024/03/14 05:22:12;;;;;;;10.10;2.45;;;;;;;6.51;100.00;99481.78;5125495;28;20042;-61
2024/03/14 05:24:38;;;;;;;3.92;3.45;;;;;;;6.50;100.00;99480.91;5125250;28;20119;-61
2024/03/14 05:27:03;;;;;;;8.57;3.17;;;;;;;6.50;100.00;99491.22;5107206;28;20019;-61
2024/03/14 05:29:29;;;;;;;2.53;2.38;;;;;;;6.47;100.00;99473.19;5125314;28;20353;-61
2024/03/14 05:31:54;;;;;;;9.98;3.85;;;;;;;6.52;100.00;99475.75;5125557;28;20055;-61
2024/03/14 05:34:20;;;;;;;4.20;3.85;;;;;;;6.49;100.00;99480.94;5125371;28;20031;-61
2024/03/14 05:36:47;;;;;;;5.22;3.15;;;;;;;6.44;100.00;99486.97;5125376;28;20028;-62
2024/03/14 05:39:14;;;;;;;5.72;3.15;;;;;;;6.45;100.00;99488.69;5125114;28;20020;-63
2024/03/14 05:41:40;;;;;;;3.95;1.67;;;;;;;6.51;100.00;99481.78;5125338;28;20031;-62
2024/03/14 05:44:05;;;;;;;2.78;1.80;;;;;;;6.52;100.00;99481.75;5125244;28;20020;-61
2024/03/14 05:46:31;;;;;;;3.20;1.98;;;;;;;6.56;100.00;99482.63;5125366;28;20057;-61
2024/03/14 05:48:56;;;;;;;2.60;2.47;;;;;;;6.49;100.00;99478.34;5125401;28;20432;-62
2024/03/14 05:51:22;;;;;;;7.40;2.80;;;;;;;6.55;100.00;99476.59;5106995;28;20031;-60
2024/03/14 05:53:47;;;;;;;4.80;1.92;;;;;;;6.55;100.00;99468.00;5125266;28;20020;-61
2024/03/14 05:56:12;;;;;;;5.40;2.90;;;;;;;6.61;100.00;99492.91;5106903;28;20356;-60
2024/03/14 05:58:43;;;;;;;4.18;2.92;;;;;;;6.58;100.00;99483.47;5125174;28;20031;-61
2024/03/14 06:01:08;;;;;;;4.93;2.90;;;;;;;6.61;100.00;99483.44;5106814;28;20028;-61
2024/03/14 06:03:33;;;;;;;7.30;3.03;;;;;;;6.58;100.00;99493.78;5125171;28;20031;-62
2024/03/14 06:05:59;;;;;;;5.22;3.35;;;;;;;6.57;100.00;99492.06;5125247;28;20023;-61
2024/03/14 06:08:24;;;;;;;3.60;3.03;;;;;;;6.58;100.00;99488.63;5125153;28;20019;-62
2024/03/14 06:10:50;;;;;;;6.00;3.08;;;;;;;6.55;100.00;99484.31;5125048;28;20405;-60
2024/03/14 06:13:16;;;;;;;3.60;2.97;;;;;;;6.52;100.00;99480.91;5124782;28;20024;-61
2024/03/14 06:15:41;;;;;;;2.85;1.45;;;;;;;6.58;100.00;99488.63;5124780;28;20023;-61
2024/03/14 06:18:08;;;;;;;3.00;2.42;;;;;;;6.57;100.00;99479.16;5125908;28;20024;-61
2024/03/14 06:20:34;;;;;;;11.98;2.65;;;;;;;6.54;100.00;99480.03;5110474;28;20058;-61
2024/03/14 06:22:59;;;;;;;14.38;2.72;;;;;;;6.55;100.00;99486.06;5128847;28;20019;-61
2024/03/14 06:25:25;;;;;;;1.88;1.75;;;;;;;6.52;100.00;99470.59;5128869;28;20465;-61
2024/03/14 06:27:52;;;;;;;1.20;1.10;;;;;;;6.51;100.00;99486.94;5128177;28;20016;-62
2024/03/14 06:30:18;;;;;;;20.33;5.32;;;;;;;6.53;100.00;99482.63;5128635;28;20134;-61
2024/03/14 06:32:45;;;;;;;3.03;1.92;;;;;;;6.54;100.00;99480.03;5128771;28;20020;-61
2024/03/14 06:35:11;;;;;;;2.25;1.85;;;;;;;6.55;100.00;99475.75;5128679;28;20031;-62
2024/03/14 06:37:36;;;;;;;2.35;2.15;;;;;;;6.59;100.00;99482.59;5128775;28;20024;-62
2024/03/14 06:40:05;;;;;;;17.92;3.10;;;;;;;6.58;100.00;99473.16;5128949;28;20023;-62
2024/03/14 06:42:32;;;;;;;27.15;3.75;;;;;;;6.55;100.00;99478.34;5128569;28;20027;-60
2024/03/14 06:45:04;;;;;;;26.30;4.50;;;;;;;6.57;100.00;99474.88;5111039;28;20050;-60
2024/03/14 06:47:30;;;;;;;6.35;3.72;;;;;;;6.58;100.00;99493.78;5128703;28;20019;-60
2024/03/14 06:49:57;;;;;;;3.28;2.63;;;;;;;6.61;100.00;99493.75;5128558;28;20080;-60
2024/03/14 06:52:22;;;;;;;6.20;2.28;;;;;;;6.58;100.00;99483.47;5128518;28;20383;-62
2024/03/14 06:54:48;;;;;;;8.27;1.70;;;;;;;6.56;100.00;99488.63;5128529;28;20015;-61
2024/03/14 06:57:14;;;;;;;37.53;2.85;;;;;;;6.56;100.00;99485.19;5128384;28;20027;-61
2024/03/14 06:59:39;;;;;;;10.70;3.00;;;;;;;6.54;100.00;99485.19;5128163;28;20087;-61
2024/03/14 07:02:05;;;;;;;4.15;1.45;;;;;;;6.47;100.00;99462.88;5128439;28;20475;-60
2024/03/14 07:04:34;;;;;;;4.82;3.22;;;;;;;6.51;100.00;99480.06;5110138;28;20475;-61
2024/03/14 07:07:03;;;;;;;7.75;3.92;;;;;;;6.55;100.00;99486.06;5128388;28;20076;-61
2024/03/14 07:09:30;;;;;;;2.58;2.38;;;;;;;6.54;100.00;99489.50;5127877;28;20456;-62
2024/03/14 07:11:56;;;;;;;5.38;2.78;;;;;;;6.53;100.00;99491.19;5128221;28;20079;-62
2024/03/14 07:14:23;;;;;;;3.03;1.77;;;;;;;6.57;100.00;99492.06;5127934;28;20027;-62
2024/03/14 07:16:48;;;;;;;13.88;5.82;;;;;;;6.59;100.00;99490.31;5128216;28;20051;-61
2024/03/14 07:19:17;;;;;;;4.88;3.75;;;;;;;6.60;100.00;99496.34;5128097;28;20028;-61
2024/03/14 07:21:44;;;;;;;7.63;4.65;;;;;;;6.53;100.00;99496.38;5127877;28;20019;-61
2024/03/14 07:24:09;;;;;;;2.03;1.88;;;;;;;6.53;100.00;99500.69;5128124;28;20487;-61
2024/03/14 07:26:37;;;;;;;1.33;1.23;;;;;;;6.53;100.00;99500.69;5128015;28;20023;-62
2024/03/14 07:29:06;;;;;;;48.75;4.88;;;;;;;6.54;100.00;99492.06;5127365;28;20020;-62
2024/03/14 07:31:31;;;;;;;12.00;6.18;;;;;;;6.50;100.00;99498.97;5109370;28;20027;-61
2024/03/14 07:33:58;;;;;;;3.33;3.03;;;;;;;6.50;100.00;99500.72;5127614;28;20045;-61
2024/03/14 07:36:28;;;;;;;4.53;2.88;;;;;;;6.50;100.00;99503.28;5127838;28;20027;-60
2024/03/14 07:38:54;;;;;;;9.77;2.53;;;;;;;6.56;100.00;99505.81;5127623;28;20020;-64
2024/03/14 07:41:22;;;;;;;4.68;3.53;;;;;;;6.57;100.00;99507.53;5127643;28;20015;-63
2024/03/14 07:43:51;;;;;;;1.85;1.27;;;;;;;6.59;100.00;99508.38;5127248;28;20024;-63
2024/03/14 07:46:22;;;;;;;4.72;2.72;;;;;;;6.63;100.00;99507.47;5127787;28;20389;-61
2024/03/14 07:48:49;;;;;;;3.33;3.00;;;;;;;6.64;100.00;99508.34;5127525;28;20019;-62
2024/03/14 07:51:15;;;;;;;1.92;1.17;;;;;;;6.62;100.00;99508.34;5127275;28;20035;-61
2024/03/14 07:53:40;;;;;;;0.50;0.50;;;;;;;6.61;100.00;99511.81;5127634;28;20024;-61
2024/03/14 07:56:09;;;;;;;5.85;2.70;;;;;;;6.60;100.00;99510.09;5127467;28;20096;-62
2024/03/14 07:58:37;;;;;;;0.90;0.90;;;;;;;6.60;100.00;99511.81;5126827;28;20087;-61
2024/03/14 08:01:09;;;;;;;2.65;2.47;;;;;;;6.58;100.00;99514.41;5127175;28;20080;-61
2024/03/14 08:03:42;;;;;;;2.05;1.85;;;;;;;6.60;100.00;99524.72;5108536;28;20027;-60
2024/03/14 08:06:11;;;;;;;10.52;5.68;;;;;;;6.62;100.00;99521.25;5127148;28;20055;-62
2024/03/14 08:08:39;;;;;;;7.72;2.58;;;;;;;6.65;100.00;99530.69;5127198;28;20539;-61
2024/03/14 08:11:04;;;;;;;12.00;3.78;;;;;;;6.65;100.00;99525.53;5126808;28;20131;-61
2024/03/14 08:13:33;;;;;;;4.13;1.45;;;;;;;6.62;100.00;99536.72;5126740;28;20517;-61
2024/03/14 08:16:14;;;;;;;1.30;1.25;;;;;;;6.64;100.00;99523.81;5127105;28;20031;-61
2024/03/14 08:18:43;;;;;;;4.13;2.58;;;;;;;6.64;100.00;99535.00;5126778;28;20035;-61
2024/03/14 08:21:12;;;;;;;3.08;2.88;;;;;;;6.65;100.00;99534.13;5127025;28;20023;-61
2024/03/14 08:23:41;;;;;;;8.38;5.50;;;;;;;6.67;100.00;99544.44;5108228;28;20040;-62
2024/03/14 08:26:07;;;;;;;10.77;3.15;;;;;;;6.64;100.00;99541.88;5126807;28;20048;-61
2024/03/14 08:28:34;;;;;;;3.53;2.80;;;;;;;6.55;100.00;99524.75;5126855;28;20075;-61
2024/03/14 08:31:01;;;;;;;9.73;2.38;;;;;;;6.61;100.00;99545.34;5126636;28;20042;-62
2024/03/14 08:33:26;;;;;;;14.25;4.45;;;;;;;6.57;100.00;99546.22;5126397;28;20023;-61
2024/03/14 08:35:52;;;;;;;3.88;2.55;;;;;;;6.54;100.00;99544.50;5126572;28;20432;-62
2024/03/14 08:38:18;;;;;;;6.90;3.72;;;;;;;6.51;100.00;99538.50;5126276;28;20107;-62
2024/03/14 08:40:44;;;;;;;5.97;2.28;;;;;;;6.47;100.00;99547.13;5126081;28;20076;-62
2024/03/14 08:43:12;;;;;;;7.90;4.63;;;;;;;6.51;100.00;99553.97;5126256;28;20379;-61
2024/03/14 08:45:38;;;;;;;5.07;3.65;;;;;;;6.47;100.00;99544.56;5126340;28;20023;-61
2024/03/14 08:48:09;;;;;;;15.65;2.80;;;;;;;6.36;100.00;99537.72;5125904;28;20090;-62
2024/03/14 08:50:35;;;;;;;8.68;4.55;;;;;;;6.40;100.00;99547.19;5126451;28;20027;-61
2024/03/14 08:53:01;;;;;;;3.58;2.05;;;;;;;6.39;100.00;99552.34;5126228;28;20031;-61
2024/03/14 08:55:37;;;;;;;1.60;1.17;;;;;;;6.41;100.00;99554.03;5126324;28;20020;-62
2024/03/14 08:58:03;;;;;;;13.98;2.40;;;;;;;6.34;100.00;99549.78;5125898;28;20019;-62
2024/03/14 09:00:31;;;;;;;12.10;3.72;;;;;;;6.28;100.00;99539.47;5126174;28;20034;-62
2024/03/14 09:02:59;;;;;;;4.07;2.70;;;;;;;6.36;100.00;99550.63;5126037;28;20019;-61
2024/03/14 09:05:29;;;;;;;1.42;1.00;;;;;;;6.35;100.00;99537.72;5126118;28;20030;-62
2024/03/14 09:07:55;;;;;;;4.47;1.55;;;;;;;6.29;100.00;99533.47;5107864;28;20030;-62
2024/03/14 09:10:25;;;;;;;2.20;2.00;;;;;;;6.39;100.00;99532.56;5125734;28;20054;-61
2024/03/14 09:12:51;;;;;;;3.20;1.33;;;;;;;6.37;100.00;99536.00;5125700;28;20035;-61
2024/03/14 09:15:19;;;;;;;9.27;2.92;;;;;;;6.37;100.00;99541.16;5107733;28;20026;-62
2024/03/14 09:17:47;;;;;;;7.15;2.42;;;;;;;6.36;100.00;99550.63;5125627;28;20099;-63
2024/03/14 09:20:16;;;;;;;2.33;2.05;;;;;;;6.36;100.00;99548.03;5107549;28;20027;-61
2024/03/14 09:22:44;;;;;;;4.15;3.58;;;;;;;6.36;100.00;99544.63;5125748;28;20024;-61
2024/03/14 09:25:14;;;;;;;5.78;5.15;;;;;;;6.36;100.00;99542.88;5125871;28;20024;-62
2024/03/14 09:27:42;;;;;;;6.28;1.75;;;;;;;6.40;100.00;99541.16;5125639;28;20035;-61
2024/03/14 09:30:08;;;;;;;0.82;0.82;;;;;;;6.42;100.00;99540.28;5108052;28;20019;-61
2024/03/14 09:32:35;;;;;;;6.28;2.78;;;;;;;6.39;100.00;99540.28;5125628;28;20467;-63
2024/03/14 09:35:05;;;;;;;4.88;4.35;;;;;;;6.39;100.00;99544.59;5125583;28;20024;-62
2024/03/14 09:37:31;;;;;;;8.50;3.22;;;;;;;6.38;100.00;99538.59;5125554;28;20069;-63
2024/03/14 09:39:58;;;;;;;19.00;4.55;;;;;;;6.36;100.00;99545.47;5107232;28;20031;-60
2024/03/14 09:42:25;;;;;;;11.13;3.22;;;;;;;6.38;100.00;99537.72;5125311;28;20454;-61
2024/03/14 09:44:51;;;;;;;1.85;0.95;;;;;;;6.38;100.00;99548.91;5125511;28;20050;-61
2024/03/14 09:47:40;;;;;;;3.78;3.47;;;;;;;6.35;100.00;99545.47;5125635;28;20464;-62
2024/03/14 09:50:17;;;;;;;3.38;2.92;;;;;;;6.37;100.00;99547.19;5125540;28;20024;-62
2024/03/14 09:52:43;;;;;;;5.95;3.50;;;;;;;6.36;100.00;99550.63;5109227;28;20045;-63
2024/03/14 09:55:12;;;;;;;10.82;5.45;;;;;;;6.40;100.00;99554.91;5129391;28;20034;-62
2024/03/14 09:57:38;;;;;;;8.52;4.70;;;;;;;6.42;100.00;99558.31;5126444;28;20334;-61
2024/03/14 10:00:08;;;;;;;5.07;3.25;;;;;;;6.47;100.00;99554.88;5108259;28;20028;-61
2024/03/14 10:02:35;;;;;;;6.18;4.85;;;;;;;6.47;100.00;99553.13;5126918;28;20079;-63
2024/03/14 10:05:10;;;;;;;2.92;1.70;;;;;;;6.48;100.00;99549.72;5126881;28;20045;-62
2024/03/14 10:07:37;;;;;;;1.52;1.42;;;;;;;6.49;100.00;99551.41;5126745;28;20023;-62
2024/03/14 10:10:04;;;;;;;6.05;3.90;;;;;;;6.50;100.00;99555.69;5126590;28;20495;-62
2024/03/14 10:12:31;;;;;;;17.70;7.05;;;;;;;6.51;100.00;99557.44;5128411;28;20034;-63
2024/03/14 10:15:00;;;;;;;10.32;5.82;;;;;;;6.55;100.00;99566.00;5129446;28;20111;-63
2024/03/14 10:17:31;;;;;;;22.15;5.93;;;;;;;6.52;100.00;99561.72;5129624;28;20015;-62
2024/03/14 10:19:59;;;;;;;3.33;2.77;;;;;;;6.51;100.00;99562.59;5129501;28;20031;-63
2024/03/14 10:22:28;;;;;;;8.65;3.53;;;;;;;6.45;100.00;99566.03;5129342;28;20026;-62
2024/03/14 10:24:54;;;;;;;10.27;4.53;;;;;;;6.45;100.00;99563.44;5129476;28;20035;-62
2024/03/14 10:27:19;;;;;;;6.22;4.53;;;;;;;6.43;100.00;99557.47;5110922;28;20016;-62
2024/03/14 10:29:45;;;;;;;5.70;3.13;;;;;;;6.43;100.00;99556.59;5110400;28;20026;-63
2024/03/14 10:32:11;;;;;;;2.75;1.98;;;;;;;6.40;100.00;99560.06;5129161;28;20033;-62
2024/03/14 10:34:38;;;;;;;4.75;3.35;;;;;;;6.43;100.00;99556.59;5129269;28;20047;-62
2024/03/14 10:37:12;;;;;;;1.77;1.23;;;;;;;6.44;100.00;99564.34;5129171;28;20051;-62
2024/03/14 10:39:42;;;;;;;5.70;4.10;;;;;;;6.43;100.00;99554.03;5129113;28;20024;-63
2024/03/14 10:42:08;;;;;;;2.13;1.73;;;;;;;6.38;100.00;99543.75;5128995;28;20382;-62
2024/03/14 10:44:33;;;;;;;5.28;3.40;;;;;;;6.49;100.00;99555.69;5128958;28;20051;-62
2024/03/14 10:46:59;;;;;;;3.08;2.47;;;;;;;6.52;100.00;99550.53;5129041;28;20019;-63
2024/03/14 10:49:25;;;;;;;1.33;1.23;;;;;;;6.56;100.00;99565.13;5129024;28;20019;-63
2024/03/14 10:51:54;;;;;;;4.30;3.25;;;;;;;6.55;100.00;99563.44;5128815;28;20027;-62
2024/03/14 10:54:26;;;;;;;4.13;3.67;;;;;;;6.50;100.00;99557.44;5110305;28;20050;-62
2024/03/14 10:56:54;;;;;;;8.60;4.13;;;;;;;6.51;100.00;99565.16;5128904;28;20031;-62
2024/03/14 10:59:21;;;;;;;6.57;4.93;;;;;;;6.54;100.00;99569.44;5128396;28;20042;-62
2024/03/14 11:02:04;;;;;;;3.03;2.78;;;;;;;6.54;100.00;99564.28;5128583;28;20024;-63
2024/03/14 11:04:30;;;;;;;3.03;2.83;;;;;;;6.57;100.00;99577.16;5109582;28;20090;-62
2024/03/14 11:07:07;;;;;;;2.55;2.03;;;;;;;6.57;100.00;99559.97;5128531;28;20060;-62
2024/03/14 11:09:40;;;;;;;7.00;4.05;;;;;;;6.63;100.00;99564.22;5110061;28;20051;-62
2024/03/14 11:12:12;;;;;;;7.93;3.90;;;;;;;6.69;100.00;99573.66;5128137;28;20015;-61
2024/03/14 11:14:40;;;;;;;1.25;1.20;;;;;;;6.70;100.00;99577.94;5128235;28;20019;-63
2024/03/14 11:17:09;;;;;;;4.72;4.03;;;;;;;6.65;100.00;99570.25;5128483;28;20034;-62
2024/03/14 11:19:39;;;;;;;6.70;4.13;;;;;;;6.72;100.00;99572.78;5128378;28;20035;-62
2024/03/14 11:22:05;;;;;;;4.25;2.65;;;;;;;6.75;100.00;99572.75;5128026;28;20024;-63
2024/03/14 11:24:32;;;;;;;5.03;3.70;;;;;;;6.75;100.00;99567.59;5128319;28;20023;-63
2024/03/14 11:27:01;;;;;;;4.53;3.17;;;;;;;6.74;100.00;99565.91;5128297;28;20027;-63
2024/03/14 11:29:29;;;;;;;8.18;2.78;;;;;;;6.79;100.00;99564.13;5127922;28;20023;-63
2024/03/14 11:32:18;;;;;;;3.15;1.92;;;;;;;6.79;100.00;99556.38;5128129;28;20527;-62